sensor_id;sensor_type;location;lat;lon;timestamp;pressure;altitude;pressure_sealevel;temperature;humidity
2339;BME280;1180;51.438;6.978;2023-05-23T00:01:13;100370.94;;;18.07;96.69
2339;BME280;1180;51.438;6.978;2023-05-23T00:03:40;100372.97;;;18.03;97.98
2339;BME280;1180;51.438;6.978;2023-05-23T00:06:06;100370.25;;;18.14;97.50
2339;BME280;1180;51.438;6.978;2023-05-23T00:08:31;100372.41;;;18.19;96.44
2339;BME280;1180;51.438;6.978;2023-05-23T00:10:56;100378.78;;;17.66;97.51
2339;BME280;1180;51.438;6.978;2023-05-23T00:13:22;100378.50;;;17.49;99.53
2339;BME280;1180;51.438;6.978;2023-05-23T00:15:47;100375.91;;;17.49;99.51
2339;BME280;1180;51.438;6.978;2023-05-23T00:18:13;100376.88;;;17.58;99.28
2339;BME280;1180;51.438;6.978;2023-05-23T00:20:40;100387.03;;;17.30;100.00
2339;BME280;1180;51.438;6.978;2023-05-23T00:23:07;100385.75;;;17.55;99.56
2339;BME280;1180;51.438;6.978;2023-05-23T00:25:34;100402.88;;;17.27;99.92
2339;BME280;1180;51.438;6.978;2023-05-23T00:28:00;100388.94;;;16.97;100.00
2339;BME280;1180;51.438;6.978;2023-05-23T00:30:26;100389.03;;;17.16;99.45
2339;BME280;1180;51.438;6.978;2023-05-23T00:32:52;100382.81;;;17.29;98.86
2339;BME280;1180;51.438;6.978;2023-05-23T00:35:21;100398.81;;;17.54;96.32
2339;BME280;1180;51.438;6.978;2023-05-23T00:37:48;100394.06;;;17.49;96.69
2339;BME280;1180;51.438;6.978;2023-05-23T00:40:18;100392.31;;;17.69;95.99
2339;BME280;1180;51.438;6.978;2023-05-23T00:42:44;100388.22;;;17.76;94.84
2339;BME280;1180;51.438;6.978;2023-05-23T00:45:10;100402.75;;;17.38;96.20
2339;BME280;1180;51.438;6.978;2023-05-23T00:47:39;100404.03;;;17.13;98.24
2339;BME280;1180;51.438;6.978;2023-05-23T00:50:10;100400.72;;;17.01;99.14
2339;BME280;1180;51.438;6.978;2023-05-23T00:52:36;100400.59;;;17.12;98.91
2339;BME280;1180;51.438;6.978;2023-05-23T00:55:02;100398.88;;;17.23;98.46
2339;BME280;1180;51.438;6.978;2023-05-23T00:57:28;100403.03;;;17.35;96.87
2339;BME280;1180;51.438;6.978;2023-05-23T00:59:53;100397.59;;;17.48;95.93
2339;BME280;1180;51.438;6.978;2023-05-23T01:05:43;100404.59;;;16.95;98.32
2339;BME280;1180;51.438;6.978;2023-05-23T01:08:08;100406.31;;;17.06;98.99
2339;BME280;1180;51.438;6.978;2023-05-23T01:10:34;100409.03;;;17.36;97.22
2339;BME280;1180;51.438;6.978;2023-05-23T01:16:06;100394.09;;;17.69;94.14
2339;BME280;1180;51.438;6.978;2023-05-23T01:18:36;100398.97;;;17.52;94.57
2339;BME280;1180;51.438;6.978;2023-05-23T01:21:08;100396.81;;;17.67;94.33
2339;BME280;1180;51.438;6.978;2023-05-23T01:24:26;100401.06;;;17.68;93.42
2339;BME280;1180;51.438;6.978;2023-05-23T01:27:07;100396.41;;;17.62;93.27
2339;BME280;1180;51.438;6.978;2023-05-23T01:29:40;100399.00;;;17.62;92.74
2339;BME280;1180;51.438;6.978;2023-05-23T01:32:10;100394.09;;;17.59;94.07
2339;BME280;1180;51.438;6.978;2023-05-23T01:34:37;100404.34;;;17.70;92.64
2339;BME280;1180;51.438;6.978;2023-05-23T01:37:07;100396.34;;;17.42;93.60
2339;BME280;1180;51.438;6.978;2023-05-23T01:39:34;100392.94;;;17.42;95.19
2339;BME280;1180;51.438;6.978;2023-05-23T01:42:00;100405.84;;;17.63;93.66
2339;BME280;1180;51.438;6.978;2023-05-23T01:44:25;100398.19;;;17.71;93.51
2339;BME280;1180;51.438;6.978;2023-05-23T01:46:51;100403.66;;;17.88;92.25
2339;BME280;1180;51.438;6.978;2023-05-23T01:49:17;100401.69;;;18.01;92.33
2339;BME280;1180;51.438;6.978;2023-05-23T01:51:44;100397.53;;;17.99;91.74
2339;BME280;1180;51.438;6.978;2023-05-23T01:54:11;100414.13;;;18.08;92.22
2339;BME280;1180;51.438;6.978;2023-05-23T01:56:37;100404.22;;;17.82;92.74
2339;BME280;1180;51.438;6.978;2023-05-23T01:59:02;100404.06;;;17.73;94.34
2339;BME280;1180;51.438;6.978;2023-05-23T02:01:28;100407.91;;;17.69;94.76
2339;BME280;1180;51.438;6.978;2023-05-23T02:03:54;100415.81;;;17.58;95.45
2339;BME280;1180;51.438;6.978;2023-05-23T02:06:19;100411.94;;;17.52;97.60
2339;BME280;1180;51.438;6.978;2023-05-23T02:08:45;100418.69;;;17.74;95.95
2339;BME280;1180;51.438;6.978;2023-05-23T02:11:10;100409.41;;;17.82;95.17
2339;BME280;1180;51.438;6.978;2023-05-23T02:13:35;100419.59;;;17.54;96.08
2339;BME280;1180;51.438;6.978;2023-05-23T02:16:01;100421.81;;;17.68;96.72
2339;BME280;1180;51.438;6.978;2023-05-23T02:18:26;100422.13;;;17.85;95.70
2339;BME280;1180;51.438;6.978;2023-05-23T02:20:53;100414.78;;;17.90;94.66
2339;BME280;1180;51.438;6.978;2023-05-23T02:23:20;100411.22;;;17.91;94.41
2339;BME280;1180;51.438;6.978;2023-05-23T02:25:45;100418.75;;;18.04;94.39
2339;BME280;1180;51.438;6.978;2023-05-23T02:28:11;100421.44;;;17.93;94.04
2339;BME280;1180;51.438;6.978;2023-05-23T02:30:37;100417.88;;;17.84;94.18
2339;BME280;1180;51.438;6.978;2023-05-23T02:33:05;100419.75;;;17.72;95.81
2339;BME280;1180;51.438;6.978;2023-05-23T02:35:32;100425.78;;;17.72;95.33
2339;BME280;1180;51.438;6.978;2023-05-23T02:37:57;100426.28;;;17.56;97.29
2339;BME280;1180;51.438;6.978;2023-05-23T02:40:23;100428.28;;;17.33;98.39
2339;BME280;1180;51.438;6.978;2023-05-23T02:42:48;100421.91;;;17.47;96.64
2339;BME280;1180;51.438;6.978;2023-05-23T02:45:15;100416.44;;;17.50;96.76
2339;BME280;1180;51.438;6.978;2023-05-23T02:47:40;100418.63;;;17.55;95.90
2339;BME280;1180;51.438;6.978;2023-05-23T02:50:06;100439.19;;;17.78;94.38
2339;BME280;1180;51.438;6.978;2023-05-23T02:52:32;100440.34;;;17.13;95.36
2339;BME280;1180;51.438;6.978;2023-05-23T02:54:57;100442.53;;;17.17;95.28
2339;BME280;1180;51.438;6.978;2023-05-23T02:57:22;100440.38;;;17.23;96.21
2339;BME280;1180;51.438;6.978;2023-05-23T02:59:47;100448.50;;;17.08;96.68
2339;BME280;1180;51.438;6.978;2023-05-23T03:02:13;100449.44;;;16.86;97.52
2339;BME280;1180;51.438;6.978;2023-05-23T03:04:38;100442.09;;;16.70;98.07
2339;BME280;1180;51.438;6.978;2023-05-23T03:07:04;100444.63;;;16.81;98.40
2339;BME280;1180;51.438;6.978;2023-05-23T03:09:30;100439.84;;;16.98;97.26
2339;BME280;1180;51.438;6.978;2023-05-23T03:11:56;100446.00;;;17.07;95.96
2339;BME280;1180;51.438;6.978;2023-05-23T03:14:21;100447.91;;;17.04;95.59
2339;BME280;1180;51.438;6.978;2023-05-23T03:16:46;100446.16;;;17.05;96.20
2339;BME280;1180;51.438;6.978;2023-05-23T03:19:12;100445.13;;;17.17;95.38
2339;BME280;1180;51.438;6.978;2023-05-23T03:21:37;100445.78;;;17.10;95.11
2339;BME280;1180;51.438;6.978;2023-05-23T03:24:03;100445.81;;;17.20;95.44
2339;BME280;1180;51.438;6.978;2023-05-23T03:26:28;100462.59;;;17.46;93.12
2339;BME280;1180;51.438;6.978;2023-05-23T03:28:53;100454.47;;;16.99;95.80
2339;BME280;1180;51.438;6.978;2023-05-23T03:31:19;100456.44;;;16.95;96.06
2339;BME280;1180;51.438;6.978;2023-05-23T03:33:44;100459.13;;;17.05;96.17
2339;BME280;1180;51.438;6.978;2023-05-23T03:36:09;100457.91;;;17.09;95.52
2339;BME280;1180;51.438;6.978;2023-05-23T03:38:35;100466.31;;;16.80;98.30
2339;BME280;1180;51.438;6.978;2023-05-23T03:41:00;100468.78;;;16.60;98.94
2339;BME280;1180;51.438;6.978;2023-05-23T03:43:26;100471.44;;;16.38;100.00
2339;BME280;1180;51.438;6.978;2023-05-23T03:45:51;100464.03;;;16.33;100.00
2339;BME280;1180;51.438;6.978;2023-05-23T03:48:16;100472.88;;;16.63;100.00
2339;BME280;1180;51.438;6.978;2023-05-23T03:50:42;100476.44;;;17.04;98.70
2339;BME280;1180;51.438;6.978;2023-05-23T03:53:07;100485.38;;;16.58;100.00
2339;BME280;1180;51.438;6.978;2023-05-23T03:55:32;100482.66;;;16.27;100.00
2339;BME280;1180;51.438;6.978;2023-05-23T03:57:58;100486.25;;;16.47;100.00
2339;BME280;1180;51.438;6.978;2023-05-23T04:00:24;100495.50;;;16.82;100.00
2339;BME280;1180;51.438;6.978;2023-05-23T04:02:50;100489.97;;;16.54;100.00
2339;BME280;1180;51.438;6.978;2023-05-23T04:05:16;100488.81;;;16.58;100.00
2339;BME280;1180;51.438;6.978;2023-05-23T04:07:42;100498.34;;;16.58;100.00
2339;BME280;1180;51.438;6.978;2023-05-23T04:10:07;100490.22;;;16.51;100.00
2339;BME280;1180;51.438;6.978;2023-05-23T04:12:33;100491.59;;;16.67;100.00
2339;BME280;1180;51.438;6.978;2023-05-23T04:14:59;100496.94;;;16.54;100.00
2339;BME280;1180;51.438;6.978;2023-05-23T04:17:25;100504.22;;;16.60;100.00
2339;BME280;1180;51.438;6.978;2023-05-23T04:19:55;100495.91;;;16.45;100.00
2339;BME280;1180;51.438;6.978;2023-05-23T04:22:20;100497.31;;;16.49;100.00
2339;BME280;1180;51.438;6.978;2023-05-23T04:24:46;100502.88;;;16.44;100.00
2339;BME280;1180;51.438;6.978;2023-05-23T04:27:11;100496.44;;;16.60;100.00
2339;BME280;1180;51.438;6.978;2023-05-23T04:29:38;100497.84;;;16.64;100.00
2339;BME280;1180;51.438;6.978;2023-05-23T04:32:04;100508.47;;;16.82;100.00
2339;BME280;1180;51.438;6.978;2023-05-23T04:34:30;100507.34;;;16.75;100.00
2339;BME280;1180;51.438;6.978;2023-05-23T04:37:01;100505.16;;;16.59;100.00
2339;BME280;1180;51.438;6.978;2023-05-23T04:39:27;100505.34;;;16.67;100.00
2339;BME280;1180;51.438;6.978;2023-05-23T04:41:53;100508.63;;;16.81;100.00
2339;BME280;1180;51.438;6.978;2023-05-23T04:44:19;100504.03;;;16.52;100.00
2339;BME280;1180;51.438;6.978;2023-05-23T04:46:44;100507.72;;;16.38;100.00
2339;BME280;1180;51.438;6.978;2023-05-23T04:49:10;100510.69;;;16.54;100.00
2339;BME280;1180;51.438;6.978;2023-05-23T04:51:37;100509.00;;;16.43;100.00
2339;BME280;1180;51.438;6.978;2023-05-23T04:54:03;100507.81;;;16.48;100.00
2339;BME280;1180;51.438;6.978;2023-05-23T04:56:28;100504.41;;;16.68;100.00
2339;BME280;1180;51.438;6.978;2023-05-23T04:58:54;100512.31;;;16.67;100.00
2339;BME280;1180;51.438;6.978;2023-05-23T05:01:20;100518.53;;;16.97;100.00
2339;BME280;1180;51.438;6.978;2023-05-23T05:03:48;100524.53;;;16.97;100.00
2339;BME280;1180;51.438;6.978;2023-05-23T05:06:14;100518.72;;;16.84;100.00
2339;BME280;1180;51.438;6.978;2023-05-23T05:08:40;100528.53;;;16.48;100.00
2339;BME280;1180;51.438;6.978;2023-05-23T05:11:05;100525.59;;;16.41;100.00
2339;BME280;1180;51.438;6.978;2023-05-23T05:13:31;100529.78;;;16.53;100.00
2339;BME280;1180;51.438;6.978;2023-05-23T05:15:56;100528.94;;;16.64;100.00
2339;BME280;1180;51.438;6.978;2023-05-23T05:18:23;100535.94;;;16.73;100.00
2339;BME280;1180;51.438;6.978;2023-05-23T05:20:49;100538.91;;;16.48;100.00
2339;BME280;1180;51.438;6.978;2023-05-23T05:23:15;100542.03;;;16.51;100.00
2339;BME280;1180;51.438;6.978;2023-05-23T05:25:40;100536.28;;;16.80;100.00
2339;BME280;1180;51.438;6.978;2023-05-23T05:28:06;100544.28;;;16.56;100.00
2339;BME280;1180;51.438;6.978;2023-05-23T05:30:31;100546.09;;;16.33;100.00
2339;BME280;1180;51.438;6.978;2023-05-23T05:33:04;100546.41;;;16.51;100.00
2339;BME280;1180;51.438;6.978;2023-05-23T05:35:32;100552.34;;;16.74;100.00
2339;BME280;1180;51.438;6.978;2023-05-23T05:37:58;100549.00;;;16.39;100.00
2339;BME280;1180;51.438;6.978;2023-05-23T05:40:23;100550.50;;;16.53;100.00
2339;BME280;1180;51.438;6.978;2023-05-23T05:42:49;100552.84;;;16.68;100.00
2339;BME280;1180;51.438;6.978;2023-05-23T05:45:14;100564.91;;;16.46;100.00
2339;BME280;1180;51.438;6.978;2023-05-23T05:47:40;100562.59;;;16.20;100.00
2339;BME280;1180;51.438;6.978;2023-05-23T05:50:06;100556.56;;;16.31;100.00
2339;BME280;1180;51.438;6.978;2023-05-23T05:52:33;100561.56;;;16.00;100.00
2339;BME280;1180;51.438;6.978;2023-05-23T05:55:03;100573.91;;;16.08;100.00
2339;BME280;1180;51.438;6.978;2023-05-23T05:57:29;100573.53;;;16.35;100.00
2339;BME280;1180;51.438;6.978;2023-05-23T05:59:54;100568.91;;;16.50;100.00
2339;BME280;1180;51.438;6.978;2023-05-23T06:02:19;100577.81;;;16.69;100.00
2339;BME280;1180;51.438;6.978;2023-05-23T06:04:45;100573.56;;;16.56;100.00
2339;BME280;1180;51.438;6.978;2023-05-23T06:07:11;100574.59;;;16.77;100.00
2339;BME280;1180;51.438;6.978;2023-05-23T06:09:36;100578.56;;;16.48;100.00
2339;BME280;1180;51.438;6.978;2023-05-23T06:12:01;100574.28;;;16.14;100.00
2339;BME280;1180;51.438;6.978;2023-05-23T06:14:27;100576.03;;;16.25;100.00
2339;BME280;1180;51.438;6.978;2023-05-23T06:16:52;100568.25;;;16.14;100.00
2339;BME280;1180;51.438;6.978;2023-05-23T06:19:17;100573.19;;;16.28;100.00
2339;BME280;1180;51.438;6.978;2023-05-23T06:21:43;100582.84;;;16.15;100.00
2339;BME280;1180;51.438;6.978;2023-05-23T06:24:08;100571.19;;;16.21;100.00
2339;BME280;1180;51.438;6.978;2023-05-23T06:26:33;100577.28;;;16.42;100.00
2339;BME280;1180;51.438;6.978;2023-05-23T06:28:59;100572.94;;;16.31;100.00
2339;BME280;1180;51.438;6.978;2023-05-23T06:31:24;100585.13;;;16.52;100.00
2339;BME280;1180;51.438;6.978;2023-05-23T06:33:50;100587.72;;;16.64;100.00
2339;BME280;1180;51.438;6.978;2023-05-23T06:36:15;100581.16;;;16.48;100.00
2339;BME280;1180;51.438;6.978;2023-05-23T06:38:40;100597.94;;;16.65;100.00
2339;BME280;1180;51.438;6.978;2023-05-23T06:41:06;100587.16;;;16.49;99.89
2339;BME280;1180;51.438;6.978;2023-05-23T06:43:31;100585.97;;;16.53;100.00
2339;BME280;1180;51.438;6.978;2023-05-23T06:45:56;100588.06;;;16.59;99.32
2339;BME280;1180;51.438;6.978;2023-05-23T06:48:22;100595.28;;;16.44;100.00
2339;BME280;1180;51.438;6.978;2023-05-23T06:50:47;100601.03;;;16.59;100.00
2339;BME280;1180;51.438;6.978;2023-05-23T06:53:13;100606.72;;;16.41;99.08
2339;BME280;1180;51.438;6.978;2023-05-23T06:55:40;100609.31;;;15.96;100.00
2339;BME280;1180;51.438;6.978;2023-05-23T06:58:05;100616.31;;;15.71;100.00
2339;BME280;1180;51.438;6.978;2023-05-23T07:00:31;100612.38;;;15.78;100.00
2339;BME280;1180;51.438;6.978;2023-05-23T07:02:56;100616.41;;;15.94;100.00
2339;BME280;1180;51.438;6.978;2023-05-23T07:05:28;100618.88;;;15.95;100.00
2339;BME280;1180;51.438;6.978;2023-05-23T07:07:53;100622.72;;;15.78;100.00
2339;BME280;1180;51.438;6.978;2023-05-23T07:10:19;100619.75;;;15.83;100.00
2339;BME280;1180;51.438;6.978;2023-05-23T07:12:45;100630.94;;;15.83;100.00
2339;BME280;1180;51.438;6.978;2023-05-23T07:15:11;100625.47;;;15.99;100.00
2339;BME280;1180;51.438;6.978;2023-05-23T07:17:36;100632.22;;;15.66;100.00
2339;BME280;1180;51.438;6.978;2023-05-23T07:20:02;100636.50;;;15.90;100.00
2339;BME280;1180;51.438;6.978;2023-05-23T07:22:29;100638.88;;;15.93;100.00
2339;BME280;1180;51.438;6.978;2023-05-23T07:24:54;100645.63;;;15.71;100.00
2339;BME280;1180;51.438;6.978;2023-05-23T07:27:20;100646.34;;;15.73;100.00
2339;BME280;1180;51.438;6.978;2023-05-23T07:29:45;100654.50;;;16.03;100.00
2339;BME280;1180;51.438;6.978;2023-05-23T07:32:11;100647.78;;;15.89;100.00
2339;BME280;1180;51.438;6.978;2023-05-23T07:34:36;100658.75;;;16.04;99.17
2339;BME280;1180;51.438;6.978;2023-05-23T07:37:01;100651.22;;;15.90;100.00
2339;BME280;1180;51.438;6.978;2023-05-23T07:39:27;100656.53;;;16.11;99.56
2339;BME280;1180;51.438;6.978;2023-05-23T07:41:52;100658.31;;;16.10;99.66
2339;BME280;1180;51.438;6.978;2023-05-23T07:44:18;100660.28;;;15.95;98.93
2339;BME280;1180;51.438;6.978;2023-05-23T07:46:43;100657.63;;;15.84;100.00
2339;BME280;1180;51.438;6.978;2023-05-23T07:49:08;100662.66;;;15.98;99.13
2339;BME280;1180;51.438;6.978;2023-05-23T07:51:34;100669.63;;;15.85;99.79
2339;BME280;1180;51.438;6.978;2023-05-23T07:53:59;100662.16;;;15.93;100.00
2339;BME280;1180;51.438;6.978;2023-05-23T07:56:24;100670.88;;;15.92;100.00
2339;BME280;1180;51.438;6.978;2023-05-23T07:58:50;100673.22;;;16.18;99.81
2339;BME280;1180;51.438;6.978;2023-05-23T08:01:16;100683.84;;;16.26;98.88
2339;BME280;1180;51.438;6.978;2023-05-23T08:03:42;100686.59;;;15.89;100.00
2339;BME280;1180;51.438;6.978;2023-05-23T08:06:07;100688.38;;;15.88;99.95
2339;BME280;1180;51.438;6.978;2023-05-23T08:08:33;100692.81;;;15.86;100.00
2339;BME280;1180;51.438;6.978;2023-05-23T08:11:00;100684.91;;;15.65;100.00
2339;BME280;1180;51.438;6.978;2023-05-23T08:13:25;100693.25;;;16.05;100.00
2339;BME280;1180;51.438;6.978;2023-05-23T08:15:51;100706.44;;;16.24;98.18
2339;BME280;1180;51.438;6.978;2023-05-23T08:18:16;100707.31;;;15.89;99.92
2339;BME280;1180;51.438;6.978;2023-05-23T08:20:42;100702.22;;;15.76;98.63
2339;BME280;1180;51.438;6.978;2023-05-23T08:23:08;100709.66;;;15.45;100.00
2339;BME280;1180;51.438;6.978;2023-05-23T08:25:33;100712.31;;;15.43;100.00
2339;BME280;1180;51.438;6.978;2023-05-23T08:27:59;100716.31;;;15.12;100.00
2339;BME280;1180;51.438;6.978;2023-05-23T08:30:26;100714.00;;;15.20;100.00
2339;BME280;1180;51.438;6.978;2023-05-23T08:32:52;100719.97;;;15.21;100.00
2339;BME280;1180;51.438;6.978;2023-05-23T08:35:18;100718.53;;;15.16;100.00
2339;BME280;1180;51.438;6.978;2023-05-23T08:37:43;100724.19;;;14.97;100.00
2339;BME280;1180;51.438;6.978;2023-05-23T08:40:14;100720.41;;;14.77;100.00
2339;BME280;1180;51.438;6.978;2023-05-23T08:42:43;100723.75;;;15.04;100.00
2339;BME280;1180;51.438;6.978;2023-05-23T08:45:08;100727.19;;;15.04;100.00
2339;BME280;1180;51.438;6.978;2023-05-23T08:47:35;100725.63;;;15.01;100.00
2339;BME280;1180;51.438;6.978;2023-05-23T08:50:04;100735.16;;;15.01;100.00
2339;BME280;1180;51.438;6.978;2023-05-23T08:52:32;100729.84;;;15.02;100.00
2339;BME280;1180;51.438;6.978;2023-05-23T08:54:59;100739.81;;;14.96;100.00
2339;BME280;1180;51.438;6.978;2023-05-23T08:57:24;100742.28;;;14.97;100.00
2339;BME280;1180;51.438;6.978;2023-05-23T08:59:51;100745.09;;;15.19;100.00
2339;BME280;1180;51.438;6.978;2023-05-23T09:02:16;100754.69;;;14.92;100.00
2339;BME280;1180;51.438;6.978;2023-05-23T09:04:42;100759.59;;;14.71;100.00
2339;BME280;1180;51.438;6.978;2023-05-23T09:07:08;100764.03;;;14.56;100.00
2339;BME280;1180;51.438;6.978;2023-05-23T09:09:35;100768.97;;;14.46;100.00
2339;BME280;1180;51.438;6.978;2023-05-23T09:12:01;100763.53;;;14.77;100.00
2339;BME280;1180;51.438;6.978;2023-05-23T09:14:27;100765.69;;;14.57;100.00
2339;BME280;1180;51.438;6.978;2023-05-23T09:17:00;100767.31;;;14.58;100.00
2339;BME280;1180;51.438;6.978;2023-05-23T09:19:26;100764.56;;;15.11;100.00
2339;BME280;1180;51.438;6.978;2023-05-23T09:21:53;100778.03;;;15.04;100.00
2339;BME280;1180;51.438;6.978;2023-05-23T09:24:19;100761.00;;;15.01;100.00
2339;BME280;1180;51.438;6.978;2023-05-23T09:26:47;100769.47;;;15.03;100.00
2339;BME280;1180;51.438;6.978;2023-05-23T09:29:13;100769.81;;;15.23;99.86
2339;BME280;1180;51.438;6.978;2023-05-23T09:31:38;100774.47;;;15.18;98.39
2339;BME280;1180;51.438;6.978;2023-05-23T09:34:04;100774.28;;;15.08;96.95
2339;BME280;1180;51.438;6.978;2023-05-23T09:36:32;100782.59;;;15.00;97.48
2339;BME280;1180;51.438;6.978;2023-05-23T09:39:03;100777.25;;;14.90;97.52
2339;BME280;1180;51.438;6.978;2023-05-23T09:41:35;100773.41;;;15.09;96.96
2339;BME280;1180;51.438;6.978;2023-05-23T09:44:05;100778.13;;;15.15;96.53
2339;BME280;1180;51.438;6.978;2023-05-23T09:46:34;100783.41;;;15.00;96.94
2339;BME280;1180;51.438;6.978;2023-05-23T09:48:59;100785.19;;;14.61;99.73
2339;BME280;1180;51.438;6.978;2023-05-23T09:51:25;100789.94;;;14.67;100.00
2339;BME280;1180;51.438;6.978;2023-05-23T09:53:50;100793.16;;;14.58;100.00
2339;BME280;1180;51.438;6.978;2023-05-23T09:56:16;100789.47;;;14.75;100.00
2339;BME280;1180;51.438;6.978;2023-05-23T09:58:49;100796.97;;;14.91;100.00
2339;BME280;1180;51.438;6.978;2023-05-23T10:01:15;100799.16;;;14.71;99.79
2339;BME280;1180;51.438;6.978;2023-05-23T10:03:44;100796.06;;;14.92;100.00
2339;BME280;1180;51.438;6.978;2023-05-23T10:09:04;100809.28;;;14.49;100.00
2339;BME280;1180;51.438;6.978;2023-05-23T10:14:08;100797.44;;;14.72;100.00
2339;BME280;1180;51.438;6.978;2023-05-23T10:19:26;100801.84;;;14.96;97.13
2339;BME280;1180;51.438;6.978;2023-05-23T10:22:01;100796.75;;;14.55;96.83
2339;BME280;1180;51.438;6.978;2023-05-23T10:24:28;100810.13;;;14.75;99.20
2339;BME280;1180;51.438;6.978;2023-05-23T10:26:54;100810.06;;;15.27;93.95
2339;BME280;1180;51.438;6.978;2023-05-23T10:29:22;100812.22;;;15.20;93.36
2339;BME280;1180;51.438;6.978;2023-05-23T10:31:48;100806.34;;;15.18;91.50
2339;BME280;1180;51.438;6.978;2023-05-23T10:39:29;100813.69;;;15.49;91.39
2339;BME280;1180;51.438;6.978;2023-05-23T10:42:12;100805.59;;;15.29;89.33
2339;BME280;1180;51.438;6.978;2023-05-23T10:44:40;100809.19;;;15.64;88.47
2339;BME280;1180;51.438;6.978;2023-05-23T10:47:05;100799.00;;;15.98;84.65
2339;BME280;1180;51.438;6.978;2023-05-23T10:52:02;100811.78;;;16.24;81.62
2339;BME280;1180;51.438;6.978;2023-05-23T10:54:34;100809.25;;;16.46;80.52
2339;BME280;1180;51.438;6.978;2023-05-23T10:57:04;100807.69;;;15.97;80.47
2339;BME280;1180;51.438;6.978;2023-05-23T10:59:30;100816.72;;;15.67;84.08
2339;BME280;1180;51.438;6.978;2023-05-23T11:01:56;100830.75;;;15.76;84.22
2339;BME280;1180;51.438;6.978;2023-05-23T11:04:25;100820.69;;;15.84;82.85
2339;BME280;1180;51.438;6.978;2023-05-23T11:06:55;100818.06;;;15.97;82.19
2339;BME280;1180;51.438;6.978;2023-05-23T11:09:21;100815.59;;;15.95;80.97
2339;BME280;1180;51.438;6.978;2023-05-23T11:14:19;100828.75;;;15.92;81.25
2339;BME280;1180;51.438;6.978;2023-05-23T11:16:45;100845.34;;;15.77;81.12
2339;BME280;1180;51.438;6.978;2023-05-23T11:21:46;100827.13;;;15.91;81.26
2339;BME280;1180;51.438;6.978;2023-05-23T11:24:14;100831.31;;;16.16;80.22
2339;BME280;1180;51.438;6.978;2023-05-23T11:26:53;100819.41;;;16.14;79.12
2339;BME280;1180;51.438;6.978;2023-05-23T11:29:24;100824.09;;;16.09;78.65
2339;BME280;1180;51.438;6.978;2023-05-23T11:31:50;100833.75;;;16.42;76.84
2339;BME280;1180;51.438;6.978;2023-05-23T11:34:17;100834.91;;;15.78;78.08
2339;BME280;1180;51.438;6.978;2023-05-23T11:36:42;100839.72;;;15.58;78.58
2339;BME280;1180;51.438;6.978;2023-05-23T11:39:08;100844.59;;;15.63;76.38
2339;BME280;1180;51.438;6.978;2023-05-23T11:41:34;100836.44;;;15.56;76.50
2339;BME280;1180;51.438;6.978;2023-05-23T11:43:59;100835.97;;;15.38;78.03
2339;BME280;1180;51.438;6.978;2023-05-23T11:46:26;100838.38;;;15.90;77.79
2339;BME280;1180;51.438;6.978;2023-05-23T11:48:51;100835.56;;;16.17;76.91
2339;BME280;1180;51.438;6.978;2023-05-23T11:51:17;100834.53;;;16.43;74.84
2339;BME280;1180;51.438;6.978;2023-05-23T11:53:43;100828.56;;;16.54;73.73
2339;BME280;1180;51.438;6.978;2023-05-23T11:56:09;100836.47;;;16.75;73.53
2339;BME280;1180;51.438;6.978;2023-05-23T11:58:36;100831.97;;;16.54;74.31
2339;BME280;1180;51.438;6.978;2023-05-23T12:01:11;100837.34;;;16.28;74.32
2339;BME280;1180;51.438;6.978;2023-05-23T12:03:45;100843.84;;;15.98;74.13
2339;BME280;1180;51.438;6.978;2023-05-23T12:06:14;100843.47;;;16.27;74.41
2339;BME280;1180;51.438;6.978;2023-05-23T12:08:40;100838.91;;;16.42;71.63
2339;BME280;1180;51.438;6.978;2023-05-23T12:11:05;100837.75;;;16.46;70.52
2339;BME280;1180;51.438;6.978;2023-05-23T12:13:31;100850.31;;;16.28;70.64
2339;BME280;1180;51.438;6.978;2023-05-23T12:16:00;100846.63;;;16.20;70.59
2339;BME280;1180;51.438;6.978;2023-05-23T12:18:30;100841.31;;;16.21;71.89
2339;BME280;1180;51.438;6.978;2023-05-23T12:21:00;100838.31;;;16.50;69.57
2339;BME280;1180;51.438;6.978;2023-05-23T12:23:28;100842.72;;;16.84;67.31
2339;BME280;1180;51.438;6.978;2023-05-23T12:25:59;100841.84;;;16.49;66.49
2339;BME280;1180;51.438;6.978;2023-05-23T12:28:41;100843.09;;;16.91;65.30
2339;BME280;1180;51.438;6.978;2023-05-23T12:31:20;100845.31;;;16.84;65.16
2339;BME280;1180;51.438;6.978;2023-05-23T12:33:47;100839.19;;;16.85;65.00
2339;BME280;1180;51.438;6.978;2023-05-23T12:36:13;100838.81;;;16.78;65.09
2339;BME280;1180;51.438;6.978;2023-05-23T12:38:40;100833.66;;;16.78;66.00
2339;BME280;1180;51.438;6.978;2023-05-23T12:41:16;100835.19;;;17.26;64.62
2339;BME280;1180;51.438;6.978;2023-05-23T12:43:50;100836.97;;;17.14;63.54
2339;BME280;1180;51.438;6.978;2023-05-23T12:46:16;100838.56;;;17.50;63.28
2339;BME280;1180;51.438;6.978;2023-05-23T12:48:42;100828.44;;;17.79;61.53
2339;BME280;1180;51.438;6.978;2023-05-23T12:51:07;100828.78;;;18.18;60.92
2339;BME280;1180;51.438;6.978;2023-05-23T12:53:34;100821.63;;;17.99;58.99
2339;BME280;1180;51.438;6.978;2023-05-23T12:56:00;100836.78;;;17.94;58.30
2339;BME280;1180;51.438;6.978;2023-05-23T12:58:25;100840.56;;;17.90;57.42
2339;BME280;1180;51.438;6.978;2023-05-23T13:00:51;100831.91;;;17.68;57.74
2339;BME280;1180;51.438;6.978;2023-05-23T13:03:17;100840.28;;;17.60;58.73
2339;BME280;1180;51.438;6.978;2023-05-23T13:05:42;100836.50;;;17.65;59.59
2339;BME280;1180;51.438;6.978;2023-05-23T13:08:08;100836.41;;;17.55;58.32
2339;BME280;1180;51.438;6.978;2023-05-23T13:10:33;100835.81;;;17.95;57.86
2339;BME280;1180;51.438;6.978;2023-05-23T13:12:58;100830.03;;;17.92;58.44
2339;BME280;1180;51.438;6.978;2023-05-23T13:15:24;100838.34;;;17.85;57.34
2339;BME280;1180;51.438;6.978;2023-05-23T13:17:49;100830.13;;;17.69;57.01
2339;BME280;1180;51.438;6.978;2023-05-23T13:20:15;100825.16;;;17.77;57.40
2339;BME280;1180;51.438;6.978;2023-05-23T13:22:40;100821.97;;;18.06;57.47
2339;BME280;1180;51.438;6.978;2023-05-23T13:25:07;100827.00;;;17.86;56.79
2339;BME280;1180;51.438;6.978;2023-05-23T13:27:32;100828.25;;;18.03;56.94
2339;BME280;1180;51.438;6.978;2023-05-23T13:29:58;100829.09;;;18.25;57.31
2339;BME280;1180;51.438;6.978;2023-05-23T13:32:23;100829.84;;;18.68;56.20